Latest Coastal Weather Observations for Burnie Port

IDT60701

Issued at 11:15 pm EDT Thursday 30 October 2014 (issued every 10 minutes, with the page automatically refreshed every 10 minutes)

About coastal observations | Map of coastal stations | Coastal observations for TAS | Marine services | Other Formats
Station Details ID: 091344 Name: BURNIE NTC AWS Lat: -41.05 Lon: 145.91 Height: 0.0 m
Data from the previous 72 hours. | See also: Recent months for locations in Tasmania
Date/Time
EDT
Temp

°C
Wind Pressure Rain
since 9am
mm
Weather Cloud Vis
km
Sea
Height
m
Swell
Dir
 
Speed
knots
Gust
knots
hPa Trend Height
m
Period
s
Dir
30/11:00pm 12.2 NW 4 7 1011.0 - - - - - - - - -
30/10:30pm 12.6 WNW 5 9 1011.2 - - - - - - - - -
30/10:00pm 12.8 WNW 6 10 1011.3 - - - - - - - - -
30/09:30pm 13.0 W 6 10 1011.3 - - - - - - - - -
30/09:00pm 13.4 WNW 6 9 1010.9 - - - - - - - - -
30/08:30pm 13.8 W 6 9 1010.5 - - - - - - - - -
30/08:00pm 14.2 W 6 10 1010.4 - - - - - - - - -
30/07:30pm 14.5 W 9 17 1010.2 - - - - - - - - -
30/07:00pm 15.2 W 8 13 1010.0 - - - - - - - - -
30/06:30pm 15.3 W 10 17 1009.8 - - - - - - - - -
30/06:00pm 15.6 W 12 22 1009.7 - - - - - - - - -
30/05:30pm 15.7 W 13 23 1009.6 - - - - - - - - -
30/05:00pm 15.3 WSW 14 22 1009.6 - - - - - - - - -
30/04:30pm 16.1 W 15 24 1009.3 - - - - - - - - -
30/04:00pm 15.8 W 15 25 1009.4 - - - - - - - - -
30/03:31pm 16.1 W 15 25 1009.2 - - - - - - - - -
30/03:30pm 15.9 W 16 25 1009.2 - - - - - - - - -
30/03:12pm 16.5 W 15 25 1009.2 - - - - - - - - -
30/03:00pm 16.4 WNW 13 19 1009.3 - - - - - - - - -
30/02:30pm 16.4 WNW 15 24 1009.1 - - - - - - - - -
30/02:00pm 16.4 WNW 13 24 1009.6 - - - - - - - - -
30/01:30pm 16.1 W 15 24 1009.3 - - - - - - - - -
30/01:00pm 16.3 W 13 22 1009.4 - - - - - - - - -
30/12:30pm 16.1 WNW 12 19 1009.5 - - - - - - - - -
30/12:00pm 15.4 W 10 20 1009.9 - - - - - - - - -
30/11:30am 14.7 W 12 19 1010.0 - - - - - - - - -
30/11:00am 14.4 NW 14 21 1010.3 - - - - - - - - -
30/10:30am 13.5 NW 16 19 1010.3 - - - - - - - - -
30/10:00am 13.3 NW 13 17 1010.5 - - - - - - - - -
30/09:30am 12.4 NW 13 16 1010.5 - - - - - - - - -
30/09:00am 13.0 WNW 12 18 1010.6 - - - - - - - - -
30/08:30am 12.6 NW 14 18 1010.5 - - - - - - - - -
30/08:00am 11.7 NW 13 16 1010.4 - - - - - - - - -
30/07:30am 11.8 WNW 8 13 1010.5 - - - - - - - - -
30/07:00am 11.1 WNW 8 13 1010.3 - - - - - - - - -
30/06:30am 11.2 WNW 7 11 1010.0 - - - - - - - - -
30/06:00am 11.3 W 6 9 1009.9 - - - - - - - - -
30/05:30am 11.3 WNW 5 8 1009.6 - - - - - - - - -
30/05:00am 11.1 W 6 10 1009.8 - - - - - - - - -
30/04:30am 11.0 W 5 10 1009.5 - - - - - - - - -
30/04:00am 11.0 WNW 6 10 1010.0 - - - - - - - - -
30/03:30am 11.1 WNW 7 11 1010.2 - - - - - - - - -
30/03:00am 11.1 WNW 7 11 1010.1 - - - - - - - - -
30/02:30am 11.1 WNW 5 8 1010.0 - - - - - - - - -
30/02:00am 11.0 W 9 14 1010.3 - - - - - - - - -
30/01:30am 11.9 WNW 7 14 1010.3 - - - - - - - - -
30/01:00am 12.2 WNW 7 11 1010.7 - - - - - - - - -
30/12:30am 12.1 WNW 6 11 1010.8 - - - - - - - - -
30/12:00am 12.3 WNW 5 9 1011.2 - - - - - - - - -
 
Date/Time
EDT
Temp

°C
Wind Pressure Rain
since 9am
mm
Weather Cloud Vis
km
Sea
Height
m
Swell
Dir
 
Speed
knots
Gust
knots
hPa Trend Height
m
Period
s
Dir
29/11:30pm 12.4 WNW 7 11 1011.2 - - - - - - - - -
29/11:00pm 12.7 WNW 6 12 1011.3 - - - - - - - - -
29/10:30pm 12.8 WNW 8 15 1011.3 - - - - - - - - -
29/10:00pm 12.8 WNW 8 12 1011.3 - - - - - - - - -
29/09:30pm 12.9 WNW 10 14 1011.4 - - - - - - - - -
29/09:00pm 13.1 WNW 9 14 1011.4 - - - - - - - - -
29/08:30pm 13.5 W 9 17 1011.2 - - - - - - - - -
29/08:00pm 13.0 W 9 13 1011.2 - - - - - - - - -
29/07:30pm 12.9 W 10 19 1011.3 - - - - - - - - -
29/07:00pm 14.1 W 10 18 1011.0 - - - - - - - - -
29/06:30pm 14.3 W 9 18 1011.0 - - - - - - - - -
29/06:00pm 14.4 W 13 22 1011.1 - - - - - - - - -
29/05:30pm 15.1 W 10 15 1011.0 - - - - - - - - -
29/05:00pm 14.3 W 13 24 1011.2 - - - - - - - - -
29/04:30pm 14.7 WNW 15 22 1011.2 - - - - - - - - -
29/04:00pm 14.5 WNW 13 22 1011.4 - - - - - - - - -
29/03:30pm 14.8 WNW 13 20 1011.7 - - - - - - - - -
29/03:00pm 15.3 WNW 13 22 1011.8 - - - - - - - - -
29/02:30pm 13.4 NW 16 22 1012.0 - - - - - - - - -
29/02:10pm 14.4 WNW 16 26 1012.3 - - - - - - - - -
29/02:00pm 13.5 NW 17 21 1012.3 - - - - - - - - -
29/01:30pm 13.9 NW 14 18 1012.3 - - - - - - - - -
29/01:00pm 13.8 W 10 18 1012.7 - - - - - - - - -
29/12:30pm 12.9 NW 14 18 1012.8 - - - - - - - - -
29/12:00pm 13.3 NW 15 19 1013.1 - - - - - - - - -
29/11:30am 13.4 W 8 13 1013.3 - - - - - - - - -
29/11:00am 13.3 WNW 9 16 1013.5 - - - - - - - - -
29/10:30am 12.6 W 11 17 1013.8 - - - - - - - - -
29/10:00am 11.9 WNW 10 18 1013.8 - - - - - - - - -
29/09:30am 10.9 WNW 10 16 1014.0 - - - - - - - - -
29/09:00am 10.3 NW 9 11 1014.0 - - - - - - - - -
29/08:30am 10.4 WNW 5 9 1014.0 - - - - - - - - -
29/08:00am 10.3 WNW 7 11 1013.8 - - - - - - - - -
29/07:30am 9.9 WNW 6 9 1013.7 - - - - - - - - -
29/07:00am 9.8 WNW 5 9 1013.6 - - - - - - - - -
29/06:30am 9.8 WNW 6 9 1013.4 - - - - - - - - -
29/06:00am 9.4 NW 5 7 1013.1 - - - - - - - - -
29/05:30am 9.2 WNW 4 7 1012.8 - - - - - - - - -
29/05:00am 9.1 W 7 10 1012.3 - - - - - - - - -
29/04:30am 9.1 W 7 10 1011.7 - - - - - - - - -
29/04:00am 9.5 WNW 6 10 1011.6 - - - - - - - - -
29/03:30am 9.5 WNW 6 10 1011.6 - - - - - - - - -
29/03:00am 9.6 NW 9 14 1011.6 - - - - - - - - -
29/02:30am 9.5 WNW 7 10 1011.3 - - - - - - - - -
29/02:00am 9.6 WNW 5 9 1011.2 - - - - - - - - -
29/01:30am 9.4 W 4 8 1011.2 - - - - - - - - -
29/01:00am 9.6 WSW 6 10 1010.9 - - - - - - - - -
29/12:30am 9.7 W 10 19 1010.7 - - - - - - - - -
29/12:00am 9.8 W 10 14 1010.5 - - - - - - - - -
 
Date/Time
EDT
Temp

°C
Wind Pressure Rain
since 9am
mm
Weather Cloud Vis
km
Sea
Height
m
Swell
Dir
 
Speed
knots
Gust
knots
hPa Trend Height
m
Period
s
Dir
28/11:30pm 9.6 W 10 17 1010.2 - - - - - - - - -
28/11:00pm 9.6 W 8 17 1009.9 - - - - - - - - -
28/10:30pm 9.8 W 12 19 1009.8 - - - - - - - - -
28/10:00pm 9.8 W 9 17 1009.5 - - - - - - - - -
28/09:30pm 9.7 W 9 22 1009.4 - - - - - - - - -
28/09:00pm 9.7 W 14 25 1009.0 - - - - - - - - -
28/08:30pm 9.7 WSW 15 25 1008.4 - - - - - - - - -
28/08:00pm 9.9 W 15 26 1007.8 - - - - - - - - -
28/07:30pm 10.1 W 15 25 1007.4 - - - - - - - - -
28/07:29pm 10.2 WSW 15 25 1007.3 - - - - - - - - -
28/07:00pm 10.7 WSW 17 26 1006.8 - - - - - - - - -
28/06:30pm 10.1 WSW 16 26 1006.8 - - - - - - - - -
28/06:11pm 10.4 WSW 16 27 1006.4 - - - - - - - - -
28/06:00pm 10.6 WSW 18 26 1006.7 - - - - - - - - -
28/05:30pm 10.2 WSW 21 27 1005.9 - - - - - - - - -
28/05:00pm 11.7 WSW 15 24 1005.1 - - - - - - - - -
28/04:51pm 11.6 W 16 26 1005.1 - - - - - - - - -
28/04:30pm 11.8 WSW 17 27 1004.9 - - - - - - - - -
28/04:00pm 13.0 W 19 27 1003.9 - - - - - - - - -
28/03:30pm 12.9 W 18 25 1003.5 - - - - - - - - -
28/03:08pm 11.9 W 15 26 1003.2 - - - - - - - - -
28/03:00pm 10.9 W 17 26 1003.4 - - - - - - - - -
28/02:30pm 10.8 W 16 26 1003.0 - - - - - - - - -
28/02:28pm 10.7 W 17 27 1003.2 - - - - - - - - -
28/02:00pm 11.3 W 18 24 1002.9 - - - - - - - - -
28/01:31pm 11.5 W 15 26 1002.5 - - - - - - - - -
28/01:30pm 11.5 W 14 26 1002.5 - - - - - - - - -
28/01:22pm 10.8 W 16 26 1002.6 - - - - - - - - -
28/01:00pm 9.1 WSW 19 27 1002.9 - - - - - - - - -
28/12:40pm 11.0 WSW 16 26 1001.8 - - - - - - - - -
28/12:30pm 10.6 WSW 17 27 1002.1 - - - - - - - - -
28/12:29pm 10.9 WSW 16 27 1002.1 - - - - - - - - -
28/12:00pm 11.7 W 18 27 1001.6 - - - - - - - - -
28/11:37am 9.8 W 15 26 1001.7 - - - - - - - - -
28/11:30am 9.2 W 18 26 1002.0 - - - - - - - - -
28/11:00am 9.9 W 19 27 1001.4 - - - - - - - - -
28/10:38am 11.3 W 16 27 1000.6 - - - - - - - - -
28/10:30am 11.1 W 18 27 1000.7 - - - - - - - - -

Other Formats:

Comma delimited format used in spreadsheet applications
http://www.bom.gov.au/fwo/IDT60701/IDT60701.95963.axf

JavaScript Object Notation format (JSON) in row-major order
http://www.bom.gov.au/fwo/IDT60701/IDT60701.95963.json